Time;durP1;ratioP1;P1;durP2;ratioP2;P2;SDS_P1;SDS_P2;PMS_P1;PMS_P2;Temp;Humidity;BMP_temperature;BMP_pressure;BME280_temperature;BME280_humidity;BME280_pressure;Samples;Min_cycle;Max_cycle;Signal;HPM_P1;HPM_P2
2022/02/08 06:47:57;;;;;;;5.65;4.10;;;;;;;;;;10501669;28;20408;-82
2022/02/08 06:53:04;;;;;;;5.72;4.03;;;;;;;;;;10499857;28;20063;-82
2022/02/08 06:58:07;;;;;;;3.55;2.50;;;;;;;;;;10498908;28;20032;-82
2022/02/08 07:03:09;;;;;;;4.03;2.25;;;;;;;;;;10500057;28;20494;-83
2022/02/08 07:08:15;;;;;;;3.28;2.53;;;;;;;;;;10499232;28;20025;-83
2022/02/08 07:13:16;;;;;;;3.42;2.63;;;;;;;;;;10499263;28;20028;-82
2022/02/08 07:18:17;;;;;;;4.50;3.13;;;;;;;;;;10501843;28;20031;-83
2022/02/08 07:23:18;;;;;;;4.20;2.85;;;;;;;;;;10503784;28;20123;-83
2022/02/08 07:28:19;;;;;;;3.90;3.28;;;;;;;;;;10503848;28;20031;-83
2022/02/08 07:33:20;;;;;;;;;;;;;;;;;;10506089;28;20021;-83
2022/02/08 07:38:25;;;;;;;4.05;2.45;;;;;;;;;;10504785;28;19942;-83
2022/02/08 07:43:26;;;;;;;6.30;4.00;;;;;;;;;;10502830;28;20119;-83
2022/02/08 07:48:29;;;;;;;6.78;5.25;;;;;;;;;;10502981;28;20063;-84
2022/02/08 07:53:30;;;;;;;6.57;5.40;;;;;;;;;;10500764;28;20501;-84
2022/02/08 07:58:31;;;;;;;3.80;2.03;;;;;;;;;;10478939;28;20056;-83
2022/02/08 08:03:32;;;;;;;2.97;1.67;;;;;;;;;;10472318;28;20032;-83
2022/02/08 08:08:34;;;;;;;6.32;3.40;;;;;;;;;;10475387;28;20132;-86
2022/02/08 08:13:39;;;;;;;;;;;;;;;;;;10482639;28;20376;-83
2022/02/08 08:24:08;;;;;;;8.00;5.30;;;;;;;;;;10503891;28;20021;-81
2022/02/08 08:29:10;;;;;;;6.80;4.25;;;;;;;;;;10498790;28;20036;-81
2022/02/08 08:34:13;;;;;;;6.05;4.45;;;;;;;;;;10493519;28;20402;-81
2022/02/08 08:39:15;;;;;;;6.05;4.28;;;;;;;;;;10494321;28;20029;-82
2022/02/08 08:54:45;;;;;;;6.27;4.33;;;;;;;;;;10478292;28;20112;-81
2022/02/08 08:59:46;;;;;;;7.05;4.45;;;;;;;;;;10489436;28;20051;-82
2022/02/08 09:04:50;;;;;;;6.55;4.85;;;;;;;;;;10503187;28;20045;-82
2022/02/08 09:09:57;;;;;;;7.30;4.53;;;;;;;;;;10506727;28;20045;-82
2022/02/08 09:30:51;;;;;;;7.45;5.43;;;;;;;;;;10480906;28;20111;-82
2022/02/08 09:35:52;;;;;;;9.75;6.68;;;;;;;;;;10483776;28;20494;-82
2022/02/08 09:40:53;;;;;;;;;;;;;;;;;;10486227;28;20032;-81
2022/02/08 09:45:54;;;;;;;9.40;7.10;;;;;;;;;;10481809;28;20380;-82
2022/02/08 09:50:56;;;;;;;;;;;;;;;;;;10482450;28;20056;-82
2022/02/08 09:55:57;;;;;;;7.82;5.75;;;;;;;;;;10478075;28;19924;-81
2022/02/08 10:01:04;;;;;;;7.68;6.70;;;;;;;;;;10477822;28;20463;-82
2022/02/08 10:06:05;;;;;;;12.77;7.40;;;;;;;;;;10476117;28;20029;-81
2022/02/08 10:11:14;;;;;;;5.57;4.25;;;;;;;;;;10480822;28;20040;-80
2022/02/08 10:21:48;;;;;;;9.88;7.90;;;;;;;;;;10479596;28;20024;-80
2022/02/08 10:42:30;;;;;;;6.20;4.68;;;;;;;;;;10472416;28;20033;-82
2022/02/08 10:47:31;;;;;;;;;;;;;;;;;;10470449;28;20033;-81
2022/02/08 10:52:32;;;;;;;6.32;4.80;;;;;;;;;;10475705;28;19905;-81
2022/02/08 10:57:44;;;;;;;6.43;4.18;;;;;;;;;;10474312;28;20033;-81
2022/02/08 11:02:48;;;;;;;7.38;4.05;;;;;;;;;;10467724;28;20028;-80
2022/02/08 11:08:12;;;;;;;6.20;3.63;;;;;;;;;;10465925;28;20115;-80
2022/02/08 11:23:36;;;;;;;5.97;4.30;;;;;;;;;;10468076;28;20036;-79
2022/02/08 11:28:45;;;;;;;7.05;4.18;;;;;;;;;;10466942;28;20089;-80
2022/02/08 11:55:05;;;;;;;5.32;3.17;;;;;;;;;;10480869;28;19915;-80
2022/02/08 12:00:16;;;;;;;7.53;5.18;;;;;;;;;;10478336;28;20402;-80
2022/02/08 12:10:27;;;;;;;6.38;2.55;;;;;;;;;;10476700;28;20051;-82
2022/02/08 12:31:58;;;;;;;7.27;3.77;;;;;;;;;;10487302;28;20037;-82
2022/02/08 12:58:37;;;;;;;8.63;4.90;;;;;;;;;;10484042;28;20113;-81
2022/02/08 13:03:50;;;;;;;6.85;3.35;;;;;;;;;;10481521;28;20036;-78
2022/02/08 13:20:11;;;;;;;11.07;4.70;;;;;;;;;;10469642;28;20052;-79
2022/02/08 14:08:15;;;;;;;5.25;2.75;;;;;;;;;;10467138;28;20063;-79
2022/02/08 14:18:47;;;;;;;5.97;2.00;;;;;;;;;;10468984;28;20021;-80
2022/02/08 14:34:59;;;;;;;6.88;3.35;;;;;;;;;;10468784;28;20037;-79
2022/02/08 15:11:34;;;;;;;;;;;;;;;;;;10490831;28;20032;-82
2022/02/08 15:16:47;;;;;;;4.72;2.00;;;;;;;;;;10490817;28;19909;-83
2022/02/08 15:21:48;;;;;;;4.57;1.92;;;;;;;;;;10473320;28;20104;-82
2022/02/08 15:26:53;;;;;;;;;;;;;;;;;;10487743;28;20029;-83
2022/02/08 15:31:57;;;;;;;6.40;2.60;;;;;;;;;;10470953;28;19909;-81
2022/02/08 15:36:58;;;;;;;4.03;1.60;;;;;;;;;;10472772;28;20100;-82
2022/02/08 15:41:59;;;;;;;5.55;1.80;;;;;;;;;;10469580;28;20082;-82
2022/02/08 15:47:07;;;;;;;;;;;;;;;;;;10469505;28;20438;-82
2022/02/08 15:52:29;;;;;;;6.07;2.63;;;;;;;;;;10469522;28;20398;-82
2022/02/08 15:58:04;;;;;;;5.28;2.45;;;;;;;;;;10470084;28;20143;-82
2022/02/08 16:08:30;;;;;;;6.65;2.80;;;;;;;;;;10471695;28;20037;-83
2022/02/08 16:14:21;;;;;;;6.32;3.22;;;;;;;;;;10467933;28;20036;-83
2022/02/08 16:19:04;;;;;;;5.72;2.80;;;;;;;;;;10469919;28;20092;-81
2022/02/08 16:24:27;;;;;;;5.03;2.58;;;;;;;;;;10468871;28;20050;-81
2022/02/08 16:30:15;;;;;;;6.68;2.70;;;;;;;;;;10470311;28;20059;-80
2022/02/08 16:51:41;;;;;;;5.18;2.33;;;;;;;;;;10472083;28;20037;-80
2022/02/08 16:56:19;;;;;;;;;;;;;;;;;;10476534;28;20127;-80
2022/02/08 17:01:25;;;;;;;3.80;2.33;;;;;;;;;;10469981;28;19973;-80
2022/02/08 17:06:27;;;;;;;5.07;2.30;;;;;;;;;;10470453;28;20029;-79
2022/02/08 17:11:54;;;;;;;4.43;2.45;;;;;;;;;;10474663;28;20025;-82
2022/02/08 17:17:08;;;;;;;5.85;2.50;;;;;;;;;;10496285;28;20053;-81
2022/02/08 17:50:37;;;;;;;6.78;2.55;;;;;;;;;;10473142;28;20036;-85
2022/02/08 17:55:38;;;;;;;4.60;2.38;;;;;;;;;;10508590;28;20056;-85
2022/02/08 19:27:18;;;;;;;4.35;3.00;;;;;;;;;;10444336;22;20041;-83
2022/02/08 19:48:34;;;;;;;4.60;2.55;;;;;;;;;;10878991;22;20057;-83
2022/02/08 20:10:35;;;;;;;3.78;1.50;;;;;;;;;;10449090;28;20042;-84
2022/02/08 20:21:19;;;;;;;2.75;1.50;;;;;;;;;;11337419;22;20053;-83
2022/02/08 20:32:03;;;;;;;2.72;1.35;;;;;;;;;;12136853;22;20682;-84
2022/02/08 21:09:07;;;;;;;2.53;1.30;;;;;;;;;;10391285;28;20092;-84
